Time;durP1;ratioP1;P1;durP2;ratioP2;P2;SDS_P1;SDS_P2;PMS_P1;PMS_P2;Temp;Humidity;BMP_temperature;BMP_pressure;BME280_temperature;BME280_humidity;BME280_pressure;Samples;Min_cycle;Max_cycle;Signal;HPM_P1;HPM_P2
2021/03/18 00:01:21;;;;;;;4.15;1.85;;;;;;;24.85;47.55;102303.38;4991448;28;20040;-60
2021/03/18 00:03:48;;;;;;;4.78;2.35;;;;;;;24.85;47.71;102303.38;5016688;28;20044;-60
2021/03/18 00:06:14;;;;;;;4.20;2.00;;;;;;;24.89;47.64;102302.00;5032899;28;20472;-60
2021/03/18 00:08:41;;;;;;;4.38;2.20;;;;;;;24.87;47.72;102300.47;5033495;28;20067;-60
2021/03/18 00:11:12;;;;;;;3.63;1.90;;;;;;;24.83;47.58;102305.47;5043484;28;20029;-60
2021/03/18 00:13:38;;;;;;;3.95;1.92;;;;;;;24.79;46.94;102303.25;5053001;28;20048;-60
2021/03/18 00:16:05;;;;;;;4.00;1.75;;;;;;;24.78;46.76;102307.91;5052753;28;20063;-60
2021/03/18 00:18:33;;;;;;;2.88;1.88;;;;;;;24.73;46.69;102310.34;5051266;28;20028;-60
2021/03/18 00:21:00;;;;;;;4.88;1.92;;;;;;;24.65;46.97;102318.63;5052464;28;20033;-60
2021/03/18 00:23:27;;;;;;;4.55;2.00;;;;;;;24.73;46.64;102315.84;5052712;28;20028;-60
2021/03/18 00:25:52;;;;;;;4.65;2.03;;;;;;;24.73;46.49;102318.59;5051137;28;20029;-60
2021/03/18 00:28:17;;;;;;;4.82;2.00;;;;;;;24.72;47.15;102324.28;5052547;28;20055;-60
2021/03/18 00:30:43;;;;;;;3.88;1.92;;;;;;;24.73;46.41;102318.59;5052716;28;20052;-60
2021/03/18 00:33:08;;;;;;;3.25;1.77;;;;;;;24.71;46.89;102317.91;5052501;28;20357;-60
2021/03/18 00:35:33;;;;;;;4.35;2.00;;;;;;;24.68;46.32;102317.41;5052700;28;20029;-60
2021/03/18 00:37:59;;;;;;;4.88;2.13;;;;;;;24.60;46.90;102315.56;5052297;28;20376;-60
2021/03/18 00:40:30;;;;;;;3.50;1.70;;;;;;;24.61;45.92;102300.75;5052476;28;20397;-60
2021/03/18 00:42:57;;;;;;;3.60;1.73;;;;;;;24.60;46.69;102299.06;5052674;28;20025;-60
2021/03/18 00:45:24;;;;;;;4.90;1.90;;;;;;;24.59;46.32;102294.59;5051247;28;20024;-60
2021/03/18 00:47:50;;;;;;;5.47;2.33;;;;;;;24.58;46.62;102290.13;5052392;28;20108;-59
2021/03/18 00:50:26;;;;;;;4.47;1.73;;;;;;;24.59;45.59;102294.59;5052042;28;20127;-60
2021/03/18 00:52:52;;;;;;;3.47;1.60;;;;;;;24.59;46.16;102286.34;5052282;28;20037;-60
2021/03/18 00:55:17;;;;;;;4.45;2.15;;;;;;;24.66;46.06;102291.97;5092399;28;20020;-60
2021/03/18 00:57:42;;;;;;;4.03;1.67;;;;;;;24.72;45.86;102292.13;5092575;28;20039;-60
2021/03/18 01:00:17;;;;;;;3.63;1.75;;;;;;;24.81;45.75;102290.19;5092062;28;20370;-60
2021/03/18 01:02:42;;;;;;;;;;;;;;;24.80;46.37;102292.06;5092876;28;20024;-60
2021/03/18 01:05:12;;;;;;;3.10;1.40;;;;;;;24.70;46.24;102288.72;5091975;28;20313;-60
2021/03/18 01:07:38;;;;;;;3.80;1.73;;;;;;;24.66;46.49;102290.06;5096411;28;20310;-60
2021/03/18 01:10:07;;;;;;;4.53;1.77;;;;;;;24.58;46.62;102284.63;5096465;28;20031;-60
2021/03/18 01:12:32;;;;;;;5.00;2.20;;;;;;;24.58;46.48;102287.38;5096418;28;20107;-60
2021/03/18 01:14:58;;;;;;;4.20;1.90;;;;;;;24.56;46.32;102281.19;5096445;28;20160;-60
2021/03/18 01:17:23;;;;;;;3.60;1.92;;;;;;;24.53;45.95;102276.06;5096282;28;20625;-60
2021/03/18 01:19:48;;;;;;;4.05;1.85;;;;;;;24.54;46.27;102272.28;5096125;28;20105;-60
2021/03/18 01:22:13;;;;;;;4.40;1.90;;;;;;;24.52;45.64;102268.81;5095977;28;20032;-60
2021/03/18 01:24:39;;;;;;;4.28;1.70;;;;;;;24.53;46.66;102262.31;5096639;28;20022;-60
2021/03/18 01:27:04;;;;;;;5.15;2.08;;;;;;;24.52;46.12;102260.56;5077866;28;20031;-60
2021/03/18 01:29:30;;;;;;;3.10;1.70;;;;;;;24.50;46.46;102254.41;5096357;28;20024;-60
2021/03/18 01:31:55;;;;;;;5.03;2.55;;;;;;;24.53;46.90;102248.56;5096076;28;20066;-60
2021/03/18 01:34:21;;;;;;;4.15;1.67;;;;;;;24.51;46.54;102245.13;5096085;28;20100;-60
2021/03/18 01:36:46;;;;;;;1.90;1.33;;;;;;;24.46;46.39;102247.56;5096633;28;20024;-60
2021/03/18 01:39:11;;;;;;;5.50;1.85;;;;;;;24.46;46.74;102239.31;5095747;28;20063;-60
2021/03/18 01:41:36;;;;;;;4.25;2.05;;;;;;;24.43;46.96;102234.16;5095555;28;20024;-60
2021/03/18 01:44:03;;;;;;;4.35;2.00;;;;;;;24.45;47.62;102235.72;5095824;28;20082;-60
2021/03/18 01:46:29;;;;;;;4.40;2.30;;;;;;;24.44;47.63;102230.38;5095869;28;20028;-60
2021/03/18 01:48:54;;;;;;;5.00;1.90;;;;;;;24.46;48.00;102234.66;5077574;28;20016;-60
2021/03/18 01:51:20;;;;;;;3.00;1.67;;;;;;;24.46;48.35;102231.06;5095645;28;20038;-60
2021/03/18 01:53:47;;;;;;;4.63;1.90;;;;;;;24.48;48.70;102231.72;5095501;28;20044;-60
2021/03/18 01:56:12;;;;;;;2.92;1.92;;;;;;;24.48;48.57;102231.72;5095529;28;20472;-60
2021/03/18 01:58:41;;;;;;;4.60;2.28;;;;;;;24.46;48.65;102220.06;5095683;28;20103;-60
2021/03/18 02:01:09;;;;;;;4.53;1.88;;;;;;;24.41;48.57;102217.88;5077205;28;20484;-60
2021/03/18 02:03:34;;;;;;;3.88;1.98;;;;;;;24.37;48.64;102216.50;5095757;28;20039;-60
2021/03/18 02:05:59;;;;;;;3.35;1.75;;;;;;;24.38;48.53;102223.72;5095289;28;20020;-60
2021/03/18 02:08:25;;;;;;;5.88;2.42;;;;;;;24.34;48.30;102227.84;5077334;28;20024;-60
2021/03/18 02:10:51;;;;;;;3.83;1.92;;;;;;;24.34;48.84;102213.25;5095482;28;20102;-60
2021/03/18 02:13:18;;;;;;;3.03;2.15;;;;;;;24.39;47.99;102219.94;5095359;28;20099;-60
2021/03/18 02:15:47;;;;;;;4.40;2.28;;;;;;;24.34;48.37;102222.34;5094810;28;20455;-60
2021/03/18 02:18:21;;;;;;;4.75;1.80;;;;;;;24.39;48.02;102210.84;5094285;28;20471;-60
2021/03/18 02:21:14;;;;;;;3.70;1.58;;;;;;;24.41;47.44;102206.00;5095102;28;20027;-60
2021/03/18 02:24:04;;;;;;;5.18;1.80;;;;;;;24.53;47.58;102207.34;5092986;28;20020;-60
2021/03/18 02:26:59;;;;;;;3.35;1.95;;;;;;;24.54;47.67;102198.03;5094764;28;20067;-60
2021/03/18 02:29:52;;;;;;;4.18;1.70;;;;;;;24.47;48.20;102197.03;5077021;28;20020;-60
2021/03/18 02:33:05;;;;;;;3.92;1.90;;;;;;;24.44;48.13;102186.41;5094848;28;20035;-60
2021/03/18 02:35:44;;;;;;;4.75;2.03;;;;;;;24.42;47.81;102174.72;5012559;28;20092;-60
2021/03/18 02:38:28;;;;;;;3.45;1.85;;;;;;;24.36;47.88;102176.31;5012332;28;20474;-60
2021/03/18 02:41:06;;;;;;;4.85;2.20;;;;;;;24.35;47.70;102181.97;5012292;28;20042;-60
2021/03/18 02:44:23;;;;;;;4.55;1.98;;;;;;;24.37;47.35;102177.19;5012656;28;20050;-60
2021/03/18 02:47:10;;;;;;;3.75;2.00;;;;;;;24.35;46.94;102176.47;4973234;28;20078;-60
2021/03/18 02:49:43;;;;;;;2.80;1.60;;;;;;;24.32;47.04;102174.94;4972649;28;20053;-60
2021/03/18 02:52:15;;;;;;;4.57;2.28;;;;;;;24.29;46.94;102164.31;4972427;28;20089;-60
2021/03/18 02:54:45;;;;;;;3.90;1.77;;;;;;;24.32;47.29;102158.44;4972892;28;20494;-59
2021/03/18 02:57:12;;;;;;;5.00;1.83;;;;;;;24.36;47.17;102150.72;4970822;28;20050;-60
2021/03/18 02:59:40;;;;;;;5.15;2.08;;;;;;;24.28;47.88;102155.19;4958294;28;20402;-60
2021/03/18 03:02:11;;;;;;;3.80;2.10;;;;;;;24.28;46.98;102146.06;4956710;28;20470;-60
2021/03/18 03:04:38;;;;;;;3.75;1.88;;;;;;;24.28;46.94;102130.44;4973156;28;20050;-60
2021/03/18 03:07:06;;;;;;;3.92;1.70;;;;;;;24.25;47.03;102133.56;4972827;28;20421;-60
2021/03/18 03:09:33;;;;;;;3.42;1.73;;;;;;;24.26;46.95;102128.91;4973081;28;20062;-60
2021/03/18 03:12:00;;;;;;;3.55;1.80;;;;;;;24.27;46.73;102128.75;4998083;28;20539;-60
2021/03/18 03:14:25;;;;;;;4.30;1.73;;;;;;;24.27;46.83;102117.75;5011919;28;20061;-60
2021/03/18 03:16:51;;;;;;;4.57;1.95;;;;;;;24.24;47.73;102122.75;5021925;28;20069;-60
2021/03/18 03:19:17;;;;;;;3.85;1.75;;;;;;;24.29;47.12;102121.19;5030282;28;20091;-60
2021/03/18 03:21:43;;;;;;;3.72;1.60;;;;;;;24.28;47.25;102119.47;5044929;28;20126;-60
2021/03/18 03:24:11;;;;;;;4.60;1.70;;;;;;;24.24;47.42;102118.09;5093947;28;20490;-60
2021/03/18 03:26:37;;;;;;;4.38;1.70;;;;;;;24.17;47.15;102117.09;5093711;28;20020;-60
2021/03/18 03:29:03;;;;;;;3.55;1.98;;;;;;;24.18;46.70;102116.06;5092869;28;20024;-60
2021/03/18 03:31:28;;;;;;;4.72;1.88;;;;;;;24.19;46.38;102115.06;5094095;28;20020;-60
2021/03/18 03:33:54;;;;;;;4.72;1.98;;;;;;;24.19;46.55;102117.81;5093887;28;20027;-60
2021/03/18 03:36:20;;;;;;;3.15;1.48;;;;;;;24.19;45.76;102115.06;5093680;28;20459;-60
2021/03/18 03:38:46;;;;;;;4.55;2.13;;;;;;;24.20;46.06;102122.25;5093802;28;20024;-60
2021/03/18 03:41:11;;;;;;;5.20;2.20;;;;;;;24.21;46.07;102115.72;5093727;28;20138;-60
2021/03/18 03:43:37;;;;;;;3.38;1.83;;;;;;;24.21;46.73;102118.47;5093638;28;20020;-60
2021/03/18 03:46:03;;;;;;;4.07;1.98;;;;;;;24.25;47.59;102119.81;5093491;28;20028;-60
2021/03/18 03:48:31;;;;;;;5.05;1.77;;;;;;;24.20;47.49;102122.25;5075080;28;20019;-60
2021/03/18 03:50:58;;;;;;;3.92;1.67;;;;;;;24.18;47.49;102117.94;5093223;28;20028;-60
2021/03/18 03:53:36;;;;;;;4.15;2.03;;;;;;;24.18;48.15;102123.44;5093366;28;20056;-60
2021/03/18 03:56:12;;;;;;;5.55;2.20;;;;;;;24.16;48.16;102128.28;5093269;28;20467;-60
2021/03/18 03:58:45;;;;;;;3.33;1.60;;;;;;;24.18;48.62;102118.81;5093729;28;20024;-60
2021/03/18 04:01:42;;;;;;;3.50;1.95;;;;;;;24.18;48.62;102118.81;5093030;28;20024;-60
2021/03/18 04:04:15;;;;;;;4.18;1.75;;;;;;;24.21;48.31;102129.47;5092904;28;20024;-60
2021/03/18 04:06:43;;;;;;;4.88;2.05;;;;;;;24.23;48.65;102132.03;5093264;28;20076;-59
2021/03/18 04:09:12;;;;;;;4.13;1.83;;;;;;;24.24;48.81;102129.09;5092824;28;20043;-60
2021/03/18 04:11:39;;;;;;;3.90;1.58;;;;;;;24.28;49.04;102127.69;5093216;28;20038;-60
2021/03/18 04:14:06;;;;;;;4.15;1.65;;;;;;;24.30;49.18;102111.91;5092984;28;20429;-60
2021/03/18 04:16:32;;;;;;;3.88;1.52;;;;;;;24.33;49.56;102109.84;5093365;28;20063;-60
2021/03/18 04:18:59;;;;;;;4.22;2.00;;;;;;;24.30;49.43;102111.91;5092406;28;20375;-60
2021/03/18 04:21:26;;;;;;;3.20;2.00;;;;;;;24.28;49.88;102115.84;5093202;28;20565;-59
2021/03/18 04:23:53;;;;;;;5.45;2.25;;;;;;;24.24;49.97;102109.88;5093004;28;20039;-60
2021/03/18 04:26:21;;;;;;;5.40;2.40;;;;;;;24.23;49.00;102108.16;5093041;28;20016;-59
2021/03/18 04:28:46;;;;;;;4.07;2.03;;;;;;;24.24;48.88;102106.25;5093257;28;20099;-59
2021/03/18 04:31:13;;;;;;;3.75;1.90;;;;;;;24.23;48.91;102108.16;5092829;28;20374;-60
2021/03/18 04:33:39;;;;;;;4.20;1.88;;;;;;;24.22;48.55;102103.69;5092948;28;20038;-60
2021/03/18 04:36:06;;;;;;;3.85;1.63;;;;;;;24.23;48.58;102101.81;5093172;28;20020;-60
2021/03/18 04:38:32;;;;;;;5.00;1.92;;;;;;;24.20;47.99;102100.28;5091900;28;20032;-60
2021/03/18 04:40:59;;;;;;;3.90;1.80;;;;;;;24.18;48.84;102096.81;5092405;28;20023;-60
2021/03/18 04:43:25;;;;;;;5.68;1.98;;;;;;;24.20;48.76;102100.28;5092885;28;20024;-60
2021/03/18 04:45:54;;;;;;;3.35;1.50;;;;;;;24.22;48.81;102091.84;5092604;28;20490;-59
2021/03/18 04:48:21;;;;;;;3.25;1.60;;;;;;;24.21;48.40;102095.63;5092555;28;20473;-60
2021/03/18 04:50:47;;;;;;;4.25;1.83;;;;;;;24.10;48.75;102091.38;5092755;28;20471;-60
2021/03/18 04:53:14;;;;;;;3.90;1.88;;;;;;;24.13;48.28;102093.78;5092327;28;20062;-60
2021/03/18 04:55:39;;;;;;;5.05;1.90;;;;;;;24.10;48.24;102088.66;5074577;28;20058;-60
2021/03/18 04:58:07;;;;;;;4.40;2.00;;;;;;;24.15;48.51;102090.84;5092343;28;20032;-60
2021/03/18 05:00:34;;;;;;;4.75;1.90;;;;;;;24.15;48.36;102085.34;5092505;28;20475;-60
2021/03/18 05:03:01;;;;;;;3.80;1.73;;;;;;;25.25;45.68;102084.06;5092236;28;20024;-60
2021/03/18 05:05:28;;;;;;;3.13;1.80;;;;;;;25.61;45.42;102089.66;5092651;28;20024;-59
2021/03/18 05:07:54;;;;;;;5.22;2.20;;;;;;;25.92;44.63;102070.22;5091697;28;20032;-60
2021/03/18 05:10:25;;;;;;;3.20;1.70;;;;;;;26.25;44.72;102075.28;5092333;28;20103;-60
2021/03/18 05:12:52;;;;;;;4.38;1.95;;;;;;;26.38;44.27;102076.31;5091951;28;20047;-59
2021/03/18 05:15:18;;;;;;;5.95;2.13;;;;;;;26.46;44.79;102071.72;5092327;28;20503;-60
2021/03/18 05:17:44;;;;;;;3.60;1.70;;;;;;;26.47;44.09;102078.94;5092236;28;20066;-60
2021/03/18 05:20:12;;;;;;;5.82;2.20;;;;;;;26.47;44.17;102079.78;5092110;28;20028;-60
2021/03/18 05:22:39;;;;;;;5.55;1.98;;;;;;;26.48;45.04;102070.47;5092784;28;20062;-60
2021/03/18 05:25:08;;;;;;;5.80;2.53;;;;;;;26.46;45.07;102067.03;5092144;28;20090;-60
2021/03/18 05:27:33;;;;;;;4.28;2.28;;;;;;;26.42;45.21;102060.22;5092678;28;20474;-60
2021/03/18 05:29:58;;;;;;;5.82;2.45;;;;;;;26.42;44.33;102065.75;5092125;28;20024;-60
2021/03/18 05:32:24;;;;;;;3.88;2.00;;;;;;;26.46;44.33;102061.53;5092265;28;20300;-60
2021/03/18 05:34:49;;;;;;;4.88;1.80;;;;;;;26.49;44.57;102066.66;5092286;28;20028;-60
2021/03/18 05:37:15;;;;;;;3.85;1.90;;;;;;;26.54;43.80;102047.63;5092130;28;20019;-60
2021/03/18 05:39:40;;;;;;;4.00;1.80;;;;;;;26.61;44.31;102053.19;5092304;28;20024;-60
2021/03/18 05:42:06;;;;;;;3.50;1.70;;;;;;;26.68;44.09;102052.19;5092059;28;20383;-60
2021/03/18 05:44:31;;;;;;;3.90;1.90;;;;;;;26.78;44.30;102056.53;5092133;28;20024;-60
2021/03/18 05:46:59;;;;;;;3.97;1.65;;;;;;;26.90;44.90;102052.19;5091984;28;20034;-59
2021/03/18 05:49:27;;;;;;;2.88;1.27;;;;;;;26.87;44.30;102058.09;5073931;28;20445;-60
2021/03/18 05:51:54;;;;;;;4.32;2.10;;;;;;;26.90;44.04;102054.94;5092901;28;20031;-60
2021/03/18 05:54:20;;;;;;;4.32;2.13;;;;;;;26.86;43.98;102050.88;5095572;28;20051;-60
2021/03/18 05:56:48;;;;;;;5.50;2.05;;;;;;;26.81;43.86;102054.22;5095814;28;20028;-60
2021/03/18 05:59:14;;;;;;;4.57;2.08;;;;;;;26.75;44.87;102054.19;5095637;28;20448;-60
2021/03/18 06:01:40;;;;;;;3.65;1.80;;;;;;;26.72;44.52;102054.59;5095759;28;20528;-60
2021/03/18 06:04:06;;;;;;;6.47;2.50;;;;;;;26.78;45.27;102054.63;5077599;28;20430;-60
2021/03/18 06:06:33;;;;;;;4.53;1.80;;;;;;;26.72;45.12;102049.06;5095235;28;20422;-60
2021/03/18 06:08:59;;;;;;;3.42;1.75;;;;;;;26.76;45.16;102042.09;5095456;28;20027;-60
2021/03/18 06:11:24;;;;;;;5.47;2.55;;;;;;;26.83;45.53;102045.75;5077355;28;20024;-60
2021/03/18 06:13:49;;;;;;;5.22;1.92;;;;;;;26.76;45.51;102039.34;5095519;28;20107;-60
2021/03/18 06:16:15;;;;;;;4.95;2.25;;;;;;;26.85;45.73;102046.41;5095182;28;20027;-60
2021/03/18 06:18:40;;;;;;;4.40;1.95;;;;;;;26.95;45.88;102039.50;5094907;28;20352;-60
2021/03/18 06:21:06;;;;;;;5.28;2.10;;;;;;;27.07;46.12;102039.84;5095250;28;20024;-60
2021/03/18 06:23:32;;;;;;;4.80;2.15;;;;;;;27.10;46.09;102033.06;5095001;28;20019;-60
2021/03/18 06:25:58;;;;;;;4.43;2.20;;;;;;;27.13;47.48;102024.38;5094961;28;20065;-60
2021/03/18 06:28:26;;;;;;;4.50;2.25;;;;;;;27.17;46.43;102031.19;5095164;28;20023;-60
2021/03/18 06:31:15;;;;;;;4.88;2.03;;;;;;;26.98;46.24;102032.72;5095109;28;20024;-60
2021/03/18 06:33:47;;;;;;;3.83;2.00;;;;;;;26.99;46.22;102039.94;5095205;28;20471;-60
2021/03/18 06:36:27;;;;;;;5.25;2.33;;;;;;;26.98;46.33;102041.84;5094661;28;20038;-60
2021/03/18 06:39:10;;;;;;;3.58;1.90;;;;;;;26.96;47.10;102043.09;5076137;28;20033;-59
2021/03/18 06:41:43;;;;;;;6.25;2.08;;;;;;;26.94;45.77;102039.69;5095056;28;20107;-59
2021/03/18 06:44:22;;;;;;;3.22;1.60;;;;;;;26.87;46.11;102041.53;5094741;28;20455;-59
2021/03/18 06:46:48;;;;;;;4.63;1.85;;;;;;;26.87;45.91;102047.06;5094834;28;20036;-60
2021/03/18 06:49:15;;;;;;;5.85;2.70;;;;;;;26.92;45.34;102044.56;5094763;28;20459;-60
2021/03/18 06:51:41;;;;;;;3.50;2.13;;;;;;;27.02;45.45;102044.22;5093443;28;20074;-59
2021/03/18 06:54:20;;;;;;;3.33;2.10;;;;;;;27.10;45.44;102033.91;5091116;28;20079;-59
2021/03/18 06:56:57;;;;;;;3.50;1.83;;;;;;;27.13;45.29;102043.69;5094635;28;20028;-59
2021/03/18 06:59:24;;;;;;;5.57;1.92;;;;;;;27.23;45.57;102041.44;5093780;28;20020;-59
2021/03/18 07:02:08;;;;;;;4.00;2.35;;;;;;;27.20;45.69;102042.66;5093768;28;20019;-59
2021/03/18 07:04:39;;;;;;;4.88;1.90;;;;;;;27.19;45.73;102040.13;5087127;28;20055;-59
2021/03/18 07:07:06;;;;;;;6.28;2.40;;;;;;;27.06;45.02;102024.34;5090265;28;20120;-59
2021/03/18 07:09:33;;;;;;;5.28;2.08;;;;;;;27.05;44.86;102033.66;5092745;28;20402;-59
2021/03/18 07:12:03;;;;;;;7.25;2.53;;;;;;;27.02;44.88;102017.50;5098563;28;20024;-59
2021/03/18 07:14:43;;;;;;;5.07;2.35;;;;;;;27.03;45.95;102035.75;5097190;28;20024;-59
2021/03/18 07:17:11;;;;;;;5.43;2.35;;;;;;;26.94;45.48;102034.19;5097497;28;20028;-59
2021/03/18 07:19:36;;;;;;;4.78;2.10;;;;;;;26.93;45.07;102030.56;5093642;28;20028;-59
2021/03/18 07:22:04;;;;;;;5.45;2.58;;;;;;;26.94;44.57;102029.50;5093826;28;20109;-59
2021/03/18 07:24:35;;;;;;;8.75;3.13;;;;;;;26.96;45.35;102019.13;5097097;28;20035;-59
2021/03/18 07:27:09;;;;;;;7.03;2.60;;;;;;;26.90;45.24;102027.38;5074724;28;20367;-59
2021/03/18 07:29:40;;;;;;;6.38;2.80;;;;;;;27.00;45.10;102014.09;5093837;28;20351;-59
2021/03/18 07:32:05;;;;;;;6.03;2.75;;;;;;;26.96;45.17;102013.59;5091706;28;20028;-59
2021/03/18 07:34:32;;;;;;;5.88;2.70;;;;;;;26.86;45.20;102015.00;5099631;28;20712;-59
2021/03/18 07:36:58;;;;;;;5.65;2.72;;;;;;;26.87;44.94;102013.94;5092422;28;20024;-59
2021/03/18 07:39:24;;;;;;;5.05;2.40;;;;;;;26.88;44.81;102021.19;5092364;28;20059;-59
2021/03/18 07:41:51;;;;;;;4.53;2.30;;;;;;;26.93;44.71;102010.41;5092343;28;20458;-59
2021/03/18 07:44:17;;;;;;;5.57;2.20;;;;;;;26.97;44.67;102019.97;5095234;28;20131;-59
2021/03/18 07:46:45;;;;;;;4.82;2.30;;;;;;;27.03;45.00;102010.91;5093412;28;20716;-58
2021/03/18 07:49:15;;;;;;;3.50;2.17;;;;;;;27.09;45.04;102018.41;5092396;28;20402;-58
2021/03/18 07:51:46;;;;;;;5.53;2.50;;;;;;;27.14;45.05;102010.38;5089494;28;20032;-59
2021/03/18 07:54:19;;;;;;;3.17;1.90;;;;;;;27.22;44.89;102007.47;5110601;22;20047;-59
2021/03/18 07:56:47;;;;;;;4.90;2.17;;;;;;;27.25;45.26;102007.06;5107410;28;20024;-58
2021/03/18 07:59:12;;;;;;;5.43;2.95;;;;;;;27.23;44.85;102000.88;5107102;28;20397;-58
2021/03/18 08:01:39;;;;;;;5.93;2.35;;;;;;;27.10;45.43;101998.03;5077946;28;20028;-58
2021/03/18 08:04:08;;;;;;;3.20;2.03;;;;;;;27.07;45.98;101997.59;5089921;28;20442;-58
2021/03/18 08:06:39;;;;;;;5.10;2.72;;;;;;;27.13;45.56;101996.75;5089574;28;20402;-58
2021/03/18 08:09:16;;;;;;;5.57;2.25;;;;;;;27.17;45.74;101987.03;5069411;28;20028;-58
2021/03/18 08:11:47;;;;;;;4.38;2.20;;;;;;;27.07;46.77;101992.91;5089001;28;20036;-58
2021/03/18 08:14:13;;;;;;;6.72;2.78;;;;;;;27.10;46.18;101992.50;5090095;28;20507;-59
2021/03/18 08:16:39;;;;;;;5.57;2.65;;;;;;;27.12;46.48;101990.41;5099960;28;20498;-58
2021/03/18 08:19:07;;;;;;;5.35;2.40;;;;;;;27.24;46.66;101980.50;5071439;28;20100;-59
2021/03/18 08:21:41;;;;;;;4.00;2.10;;;;;;;27.28;46.51;101978.19;5086254;28;20047;-58
2021/03/18 08:24:15;;;;;;;3.15;2.05;;;;;;;27.38;46.30;101975.03;5076536;28;20414;-58
2021/03/18 08:26:44;;;;;;;4.78;2.45;;;;;;;27.38;47.43;101966.75;5091128;28;20039;-58
2021/03/18 08:29:23;;;;;;;6.13;2.20;;;;;;;27.44;47.46;101968.69;5089623;28;20541;-58
2021/03/18 08:32:19;;;;;;;5.85;2.30;;;;;;;27.42;46.79;101960.63;5090838;28;20115;-58
2021/03/18 08:34:55;;;;;;;4.03;2.10;;;;;;;27.23;46.56;101967.75;5085744;28;20032;-59
2021/03/18 08:37:35;;;;;;;4.55;2.13;;;;;;;27.20;47.01;101965.38;5088731;28;20061;-59
2021/03/18 08:40:03;;;;;;;5.00;2.30;;;;;;;27.26;47.36;101964.56;5089965;28;20555;-56
2021/03/18 08:42:29;;;;;;;5.40;1.90;;;;;;;27.14;46.57;101968.09;5089593;28;20038;-57
2021/03/18 08:45:09;;;;;;;4.72;2.13;;;;;;;27.12;46.61;101956.41;5092002;28;20028;-57
2021/03/18 08:47:40;;;;;;;6.03;2.15;;;;;;;27.09;45.91;101959.59;5092014;28;20027;-57
2021/03/18 08:50:13;;;;;;;5.25;2.17;;;;;;;27.13;45.99;101956.22;5090658;28;20483;-56
2021/03/18 08:52:45;;;;;;;5.63;2.20;;;;;;;27.14;46.17;101962.59;5108578;28;20069;-57
2021/03/18 08:55:33;;;;;;;6.30;2.25;;;;;;;27.11;45.93;101950.06;5093682;28;20020;-58
2021/03/18 08:57:59;;;;;;;3.35;1.83;;;;;;;27.13;46.23;101941.56;5103010;28;20077;-58
2021/03/18 09:00:25;;;;;;;6.22;2.50;;;;;;;27.01;45.86;101951.47;5093546;28;20034;-58
2021/03/18 09:02:51;;;;;;;3.83;2.05;;;;;;;27.06;45.57;101941.53;5091461;28;20024;-58
2021/03/18 09:05:19;;;;;;;5.97;2.33;;;;;;;27.03;45.52;101952.97;5094898;28;20083;-57
2021/03/18 09:07:45;;;;;;;5.10;2.22;;;;;;;26.99;45.39;101948.88;5089073;28;20016;-57
2021/03/18 09:10:17;;;;;;;4.18;2.10;;;;;;;27.08;45.53;101939.41;5091461;28;20020;-57
2021/03/18 09:12:48;;;;;;;4.47;2.28;;;;;;;27.13;45.45;101945.16;5088943;28;20471;-58
2021/03/18 09:15:20;;;;;;;4.88;1.98;;;;;;;27.21;45.50;101949.66;5090822;28;20348;-58
2021/03/18 09:17:48;;;;;;;5.85;2.53;;;;;;;27.32;45.39;101953.75;5092021;28;20486;-57
2021/03/18 09:20:16;;;;;;;4.38;2.17;;;;;;;27.33;45.29;101953.56;5086435;28;20035;-58
2021/03/18 09:22:42;;;;;;;4.78;1.90;;;;;;;27.40;45.79;101948.09;5103542;28;20024;-59
2021/03/18 09:25:08;;;;;;;5.18;1.90;;;;;;;27.46;44.83;101950.88;5106620;28;20526;-57
2021/03/18 09:27:39;;;;;;;5.00;2.40;;;;;;;27.41;45.67;101958.06;5089278;28;20024;-58
2021/03/18 09:30:22;;;;;;;6.50;2.45;;;;;;;27.28;45.07;101956.94;5095061;28;20027;-58
2021/03/18 09:32:49;;;;;;;5.32;2.53;;;;;;;27.21;45.21;101955.19;5093551;28;20052;-59
2021/03/18 09:35:15;;;;;;;5.90;2.38;;;;;;;27.20;45.55;101953.47;5088189;28;20424;-58
2021/03/18 09:37:43;;;;;;;4.70;2.22;;;;;;;27.27;45.16;101952.47;5094468;28;20424;-59
2021/03/18 09:40:09;;;;;;;4.97;2.40;;;;;;;27.14;45.71;101944.13;5090927;28;20016;-60
2021/03/18 09:42:36;;;;;;;3.58;2.00;;;;;;;26.94;46.73;101949.47;5095115;28;20028;-60
2021/03/18 09:45:03;;;;;;;4.38;1.83;;;;;;;26.82;44.46;101961.28;5094911;28;20061;-58
2021/03/18 09:47:29;;;;;;;4.57;2.03;;;;;;;27.18;44.26;101959.22;5095067;28;20058;-58
2021/03/18 09:49:54;;;;;;;4.57;1.90;;;;;;;27.22;44.52;101955.00;5081756;28;20065;-58
2021/03/18 09:52:28;;;;;;;5.53;2.20;;;;;;;27.33;44.92;101959.09;5101651;28;20020;-58
2021/03/18 09:54:56;;;;;;;4.88;2.00;;;;;;;27.32;44.97;101960.13;5095099;28;20059;-58
2021/03/18 09:57:22;;;;;;;4.10;1.55;;;;;;;27.42;44.63;101959.78;5093476;28;20062;-58
2021/03/18 09:59:52;;;;;;;5.60;2.35;;;;;;;27.43;45.44;101964.25;5099701;28;20327;-58
2021/03/18 10:02:24;;;;;;;5.40;2.40;;;;;;;27.27;45.70;101966.28;5094771;28;20356;-58
2021/03/18 10:04:50;;;;;;;5.80;2.03;;;;;;;27.25;45.02;101967.53;5095394;28;20099;-58
2021/03/18 10:07:16;;;;;;;5.72;2.33;;;;;;;27.25;44.77;101962.88;5094318;28;20110;-58
2021/03/18 10:09:45;;;;;;;4.70;1.95;;;;;;;27.15;45.33;101978.94;5090199;28;20024;-58
2021/03/18 10:12:13;;;;;;;7.38;2.72;;;;;;;27.16;45.42;101964.09;5094064;28;20028;-58
2021/03/18 10:14:43;;;;;;;6.07;2.30;;;;;;;27.11;45.65;101980.41;5102727;28;20028;-59
2021/03/18 10:17:22;;;;;;;4.90;2.08;;;;;;;27.15;45.44;101976.19;5114604;28;20016;-58
2021/03/18 10:20:03;;;;;;;5.80;2.55;;;;;;;27.22;46.28;101971.56;5103575;28;20059;-58
2021/03/18 10:22:32;;;;;;;6.13;2.67;;;;;;;27.20;45.65;101973.66;5094056;28;20060;-58
2021/03/18 10:25:06;;;;;;;5.00;2.72;;;;;;;27.21;46.91;101971.75;5094865;28;20024;-58
2021/03/18 10:27:39;;;;;;;5.05;2.50;;;;;;;27.22;47.18;101973.47;5094191;28;20024;-59
2021/03/18 10:30:25;;;;;;;4.07;1.83;;;;;;;27.14;47.23;101974.47;5094123;28;20109;-59
2021/03/18 10:33:14;;;;;;;4.03;2.10;;;;;;;27.06;47.10;101977.41;5093708;28;20047;-58
2021/03/18 10:35:44;;;;;;;4.80;2.58;;;;;;;27.13;46.55;101975.53;5096401;28;20068;-58
2021/03/18 10:38:15;;;;;;;4.47;2.33;;;;;;;27.07;46.99;101973.59;5085877;28;20039;-58
2021/03/18 10:40:45;;;;;;;5.18;2.47;;;;;;;27.08;46.04;101978.06;5095820;28;20036;-58
2021/03/18 10:43:22;;;;;;;7.13;3.00;;;;;;;27.22;46.53;101974.34;5111594;28;20430;-58
2021/03/18 10:45:48;;;;;;;5.50;2.35;;;;;;;27.25;46.51;101976.69;5094622;28;20024;-59
2021/03/18 10:48:19;;;;;;;4.78;2.40;;;;;;;27.37;46.44;101976.09;5085700;28;20031;-59
2021/03/18 10:50:45;;;;;;;7.53;2.30;;;;;;;27.51;46.13;101977.84;5095482;28;20379;-59
2021/03/18 10:53:11;;;;;;;5.35;2.22;;;;;;;27.45;46.35;101978.69;5113792;28;20351;-59
2021/03/18 10:55:43;;;;;;;4.25;2.00;;;;;;;27.50;46.86;101981.69;5094692;28;20024;-59
2021/03/18 10:58:14;;;;;;;6.28;2.30;;;;;;;27.45;46.63;101975.94;5096290;28;20024;-59
2021/03/18 11:00:40;;;;;;;5.35;2.45;;;;;;;27.27;46.98;101971.81;5091862;28;20422;-59
2021/03/18 11:03:13;;;;;;;5.85;2.17;;;;;;;27.30;45.76;101972.44;5093109;28;20141;-59
2021/03/18 11:05:49;;;;;;;4.95;2.20;;;;;;;27.25;46.18;101973.91;5083356;28;20123;-59
2021/03/18 11:08:17;;;;;;;4.70;2.30;;;;;;;27.22;46.10;101977.09;5084849;28;20262;-59
2021/03/18 11:10:46;;;;;;;6.05;2.92;;;;;;;27.22;46.10;101987.28;5092718;28;20027;-59
2021/03/18 11:13:17;;;;;;;6.15;2.83;;;;;;;27.19;45.60;101983.00;5092215;28;20375;-59
2021/03/18 11:15:48;;;;;;;3.95;2.10;;;;;;;27.22;45.68;101968.81;5092243;28;20239;-58
2021/03/18 11:18:15;;;;;;;6.10;2.40;;;;;;;27.24;44.89;101976.88;5091310;28;20024;-59
2021/03/18 11:20:44;;;;;;;7.45;2.20;;;;;;;27.28;45.40;101978.19;5094274;28;20478;-59
2021/03/18 11:23:11;;;;;;;7.07;2.83;;;;;;;27.25;45.81;101984.97;5092717;28;20024;-59
2021/03/18 11:25:37;;;;;;;5.97;2.40;;;;;;;27.10;46.08;101978.72;5094933;28;20341;-59
2021/03/18 11:28:03;;;;;;;6.40;2.40;;;;;;;27.08;45.80;101977.22;5094818;28;20024;-59
2021/03/18 11:30:36;;;;;;;6.05;2.70;;;;;;;27.07;45.25;101976.34;5094209;28;20023;-59
2021/03/18 11:33:08;;;;;;;6.03;2.88;;;;;;;27.07;45.41;101970.84;5071192;28;20040;-59
2021/03/18 11:35:33;;;;;;;4.03;2.42;;;;;;;27.11;45.83;101982.31;5076686;28;20024;-58